createdAt,value
2022-09-30T18:42:20.232Z,9.60
2022-09-30T18:44:52.016Z,9.60
2022-09-30T18:47:18.888Z,9.50
2022-09-30T18:49:45.759Z,9.40
2022-09-30T18:52:12.872Z,9.30
2022-09-30T18:54:40.030Z,9.30
2022-09-30T18:57:06.878Z,9.20
2022-09-30T18:59:33.723Z,9.20
2022-09-30T19:02:00.723Z,9.10
2022-09-30T19:04:30.701Z,9.10
2022-09-30T19:06:57.628Z,9.10
2022-09-30T19:09:26.658Z,9.00
2022-09-30T19:11:53.552Z,9.00
2022-09-30T19:14:21.164Z,9.00
2022-09-30T19:16:48.153Z,9.10
2022-09-30T19:19:17.717Z,9.10
2022-09-30T19:21:48.930Z,9.10
2022-09-30T19:24:17.192Z,9.20
2022-09-30T19:26:46.588Z,9.20
2022-09-30T19:29:13.867Z,9.20
2022-09-30T19:31:45.551Z,9.20
2022-09-30T19:34:19.903Z,9.20
2022-09-30T19:37:00.098Z,9.20
2022-09-30T19:39:37.500Z,9.20
2022-09-30T19:42:09.638Z,9.20
2022-09-30T19:44:36.949Z,9.30
2022-09-30T19:47:03.810Z,9.20
2022-09-30T19:49:31.150Z,9.20
2022-09-30T19:51:59.985Z,9.20
2022-09-30T19:54:39.330Z,9.20
2022-09-30T19:57:08.170Z,9.30
2022-09-30T19:59:35.151Z,9.20
2022-09-30T20:02:03.213Z,9.30
2022-09-30T20:04:30.188Z,9.20
2022-09-30T20:06:59.281Z,9.30
2022-09-30T20:09:31.458Z,9.20
2022-09-30T20:12:00.316Z,9.10
2022-09-30T20:14:45.563Z,9.10
2022-09-30T20:17:12.681Z,9.10
2022-09-30T20:19:39.585Z,9.20
2022-09-30T20:22:06.453Z,9.20
2022-09-30T20:24:33.514Z,9.20
2022-09-30T20:27:00.585Z,9.20
2022-09-30T20:29:27.475Z,9.20
2022-09-30T20:31:54.356Z,9.20
2022-09-30T20:34:21.450Z,9.20
2022-09-30T20:36:50.815Z,9.10
2022-09-30T20:39:17.738Z,9.10
2022-09-30T20:41:45.604Z,9.20
2022-09-30T20:44:13.822Z,9.20
2022-09-30T20:46:44.026Z,9.10
2022-09-30T20:49:10.932Z,9.20
2022-09-30T20:51:38.183Z,9.20
2022-09-30T20:54:05.064Z,9.20
2022-09-30T20:56:49.662Z,9.20
2022-09-30T20:59:19.421Z,9.20
2022-09-30T21:01:46.291Z,9.20
2022-09-30T21:04:13.131Z,9.20
2022-09-30T21:06:40.008Z,9.20
2022-09-30T21:09:06.849Z,9.30
2022-09-30T21:11:34.027Z,9.30
2022-09-30T21:14:01.564Z,9.30
2022-09-30T21:16:29.679Z,9.30
2022-09-30T21:18:56.696Z,9.30
2022-09-30T21:21:24.835Z,9.40
2022-09-30T21:23:55.576Z,9.40
2022-09-30T21:26:22.480Z,9.40
2022-09-30T21:28:50.839Z,9.40
2022-09-30T21:31:24.098Z,9.30
2022-09-30T21:33:53.872Z,9.30
2022-09-30T21:36:21.385Z,9.30
2022-09-30T21:38:49.821Z,9.30
2022-09-30T21:41:18.126Z,9.40
2022-09-30T21:43:45.177Z,9.40
2022-09-30T21:46:15.013Z,9.40
2022-09-30T21:48:42.695Z,9.50
2022-09-30T21:51:10.335Z,9.60
2022-09-30T21:53:39.021Z,9.70
2022-09-30T21:56:07.074Z,9.70
2022-09-30T21:58:34.240Z,9.70
2022-09-30T22:01:03.870Z,9.80
2022-09-30T22:03:36.093Z,9.90
2022-09-30T22:06:06.840Z,9.80
2022-09-30T22:08:40.366Z,9.80
2022-09-30T22:11:12.666Z,9.80
2022-09-30T22:13:42.169Z,9.70
2022-09-30T22:16:09.717Z,9.70
2022-09-30T22:18:36.975Z,9.70
2022-09-30T22:21:07.225Z,9.60
2022-09-30T22:23:34.507Z,9.60
2022-09-30T22:26:12.112Z,9.60
2022-09-30T22:28:39.606Z,9.50
2022-09-30T22:31:13.903Z,9.50
2022-09-30T22:34:00.088Z,9.40
2022-09-30T22:36:45.686Z,9.40
2022-09-30T22:39:12.722Z,9.30
2022-09-30T22:41:39.656Z,9.30
2022-09-30T23:43:31.627Z,9.00
2022-09-30T23:45:58.952Z,9.10
2022-09-30T23:48:26.307Z,9.20
2022-09-30T23:50:53.689Z,9.10
2022-09-30T23:53:22.618Z,9.20
2022-09-30T23:56:04.828Z,9.30
2022-09-30T23:58:34.204Z,9.40
